createdAt,value
2018-02-04T00:00:40.012Z,15.63
2018-02-04T00:03:06.845Z,16.42
2018-02-04T00:05:33.679Z,16.35
2018-02-04T00:08:00.573Z,15.40
2018-02-04T00:10:27.432Z,16.40
2018-02-04T00:12:54.320Z,18.42
2018-02-04T00:15:21.133Z,15.50
2018-02-04T00:17:47.988Z,16.20
2018-02-04T00:20:14.868Z,19.50
2018-02-04T00:22:41.740Z,16.58
2018-02-04T00:25:08.603Z,16.67
2018-02-04T00:27:35.450Z,16.65
2018-02-04T00:30:02.315Z,17.48
2018-02-04T00:32:29.454Z,16.75
2018-02-04T00:34:56.612Z,16.73
2018-02-04T00:37:23.438Z,18.67
2018-02-04T00:39:50.284Z,19.30
2018-02-04T00:42:17.127Z,16.33
2018-02-04T00:44:43.947Z,16.85
2018-02-04T00:47:10.803Z,17.10
2018-02-04T00:49:37.692Z,16.92
2018-02-04T00:52:04.547Z,17.45
2018-02-04T00:54:31.404Z,17.65
2018-02-04T00:56:58.234Z,17.37
2018-02-04T00:59:25.348Z,19.10
2018-02-04T01:01:52.180Z,19.55
2018-02-04T01:04:19.036Z,17.95
2018-02-04T01:06:45.990Z,18.83
2018-02-04T01:09:12.844Z,18.50
2018-02-04T01:11:39.698Z,18.90
2018-02-04T01:14:06.560Z,17.62
2018-02-04T01:16:33.655Z,19.37
2018-02-04T01:19:00.807Z,16.67
2018-02-04T01:21:27.672Z,18.75
2018-02-04T01:23:54.799Z,18.25
2018-02-04T01:26:21.671Z,18.62
2018-02-04T01:28:48.552Z,19.60
2018-02-04T01:31:15.415Z,21.10
2018-02-04T01:33:42.246Z,19.75
2018-02-04T01:36:09.435Z,18.75
2018-02-04T01:38:36.580Z,19.27
2018-02-04T01:41:03.448Z,18.80
2018-02-04T01:43:30.324Z,17.25
2018-02-04T01:45:57.154Z,17.73
2018-02-04T01:48:24.125Z,17.30
2018-02-04T01:50:50.980Z,18.40
2018-02-04T01:53:17.840Z,17.87
2018-02-04T01:55:44.691Z,17.97
2018-02-04T01:58:11.531Z,17.33
2018-02-04T02:00:38.656Z,20.30
2018-02-04T02:03:05.511Z,17.37
2018-02-04T02:05:32.680Z,17.30
2018-02-04T02:07:59.538Z,18.87
2018-02-04T02:10:26.420Z,19.42
2018-02-04T02:12:53.317Z,16.52
2018-02-04T02:15:20.156Z,17.65
2018-02-04T02:17:47.026Z,18.55
2018-02-04T02:20:13.847Z,20.17
2018-02-04T02:22:40.678Z,19.20
2018-02-04T02:25:07.499Z,20.00
2018-02-04T02:27:34.562Z,19.30
2018-02-04T02:30:01.715Z,19.17
2018-02-04T02:32:28.544Z,18.70
2018-02-04T02:34:55.412Z,18.63
2018-02-04T02:37:22.239Z,18.20
2018-02-04T02:39:49.088Z,19.30
2018-02-04T02:42:15.949Z,19.83
2018-02-04T02:44:42.840Z,18.60
2018-02-04T02:47:09.700Z,19.50
2018-02-04T02:49:36.537Z,18.25
2018-02-04T02:52:03.357Z,19.37
2018-02-04T02:54:30.198Z,18.83
2018-02-04T02:56:57.072Z,19.00
2018-02-04T02:59:23.899Z,19.60
2018-02-04T03:01:50.745Z,19.10
2018-02-04T03:04:17.632Z,19.40
2018-02-04T03:06:44.478Z,19.62
2018-02-04T03:09:11.344Z,19.35
2018-02-04T03:11:38.559Z,19.60
2018-02-04T03:14:05.388Z,20.45
2018-02-04T03:16:32.215Z,18.33
2018-02-04T03:18:59.072Z,19.17
2018-02-04T03:21:25.906Z,18.30
2018-02-04T03:23:52.752Z,20.20
2018-02-04T03:26:19.596Z,19.20
2018-02-04T03:28:46.426Z,20.80
2018-02-04T03:31:13.267Z,19.83
2018-02-04T03:33:40.145Z,18.98
2018-02-04T03:36:06.967Z,18.33
2018-02-04T03:38:33.829Z,19.42
2018-02-04T03:41:00.701Z,19.23
2018-02-04T03:43:27.651Z,19.20
2018-02-04T03:45:54.519Z,20.70
2018-02-04T03:48:21.436Z,20.98
2018-02-04T03:50:48.288Z,19.55
2018-02-04T03:53:15.174Z,21.73
2018-02-04T03:55:41.990Z,21.02
2018-02-04T03:58:08.819Z,21.58
2018-02-04T04:00:35.672Z,21.23
2018-02-04T04:03:02.580Z,25.90
2018-02-04T04:05:29.689Z,20.73
2018-02-04T04:07:56.593Z,20.37
2018-02-04T04:10:23.423Z,21.62
2018-02-04T04:12:50.279Z,20.48
2018-02-04T04:15:17.111Z,21.93
2018-02-04T04:17:44.251Z,21.10
2018-02-04T04:20:11.095Z,19.37
2018-02-04T04:22:37.951Z,21.30
2018-02-04T04:25:04.815Z,19.40
2018-02-04T04:27:31.680Z,19.80
2018-02-04T04:29:58.498Z,22.13
2018-02-04T04:32:25.376Z,21.20
2018-02-04T04:34:52.244Z,21.00
2018-02-04T04:37:19.078Z,20.37
2018-02-04T04:39:45.960Z,21.10
2018-02-04T04:42:12.791Z,21.77
2018-02-04T04:44:39.652Z,19.45
2018-02-04T04:47:06.531Z,19.48
2018-02-04T04:49:33.388Z,19.60
2018-02-04T04:52:00.250Z,17.67
2018-02-04T04:54:27.110Z,17.65
2018-02-04T04:56:53.972Z,15.80
2018-02-04T04:59:20.853Z,14.50
2018-02-04T05:01:47.667Z,12.30
2018-02-04T05:04:14.516Z,11.68
2018-02-04T05:06:41.334Z,8.90
2018-02-04T05:09:08.142Z,8.43
2018-02-04T05:11:34.954Z,9.80
2018-02-04T05:14:01.823Z,9.50
2018-02-04T05:16:28.658Z,11.80
2018-02-04T05:18:55.544Z,11.00
2018-02-04T05:21:22.383Z,10.82
2018-02-04T05:23:49.234Z,11.10
2018-02-04T05:26:16.057Z,11.40
2018-02-04T05:28:42.963Z,10.50
2018-02-04T05:31:09.783Z,11.80
2018-02-04T05:33:36.642Z,10.48
2018-02-04T05:36:03.508Z,10.80
2018-02-04T05:38:30.338Z,10.13
2018-02-04T05:40:57.180Z,11.35
2018-02-04T05:43:24.050Z,10.35
2018-02-04T05:45:50.891Z,11.50
2018-02-04T05:48:17.726Z,11.20
2018-02-04T05:50:44.899Z,10.70
2018-02-04T05:53:12.051Z,11.60
2018-02-04T05:55:39.022Z,14.80
2018-02-04T05:58:05.886Z,11.32
2018-02-04T06:00:32.730Z,11.30
2018-02-04T06:02:59.602Z,12.00
2018-02-04T06:05:26.457Z,10.75
2018-02-04T06:07:53.287Z,10.45
2018-02-04T06:10:20.118Z,10.65
2018-02-04T06:12:46.964Z,10.43
2018-02-04T06:15:14.156Z,11.20
2018-02-04T06:17:41.013Z,11.20
2018-02-04T06:20:07.863Z,10.35
2018-02-04T06:22:34.723Z,10.60
2018-02-04T06:25:01.542Z,9.70
2018-02-04T06:27:28.406Z,11.90
2018-02-04T06:29:55.480Z,11.20
2018-02-04T06:32:22.302Z,10.73
2018-02-04T06:34:49.131Z,10.82
2018-02-04T06:37:16.250Z,10.30
2018-02-04T06:39:43.098Z,11.98
2018-02-04T06:42:10.251Z,10.38
2018-02-04T06:44:37.400Z,10.52
2018-02-04T06:47:04.222Z,10.65
2018-02-04T06:49:31.058Z,11.10
2018-02-04T06:51:58.131Z,10.77
2018-02-04T06:54:24.980Z,9.77
2018-02-04T06:56:52.019Z,9.70
2018-02-04T06:59:19.379Z,11.75
2018-02-04T07:01:46.215Z,10.73
2018-02-04T07:04:13.038Z,9.77
2018-02-04T07:06:39.896Z,9.20
2018-02-04T07:09:06.769Z,10.93
2018-02-04T07:11:33.627Z,9.48
2018-02-04T07:14:00.482Z,10.30
2018-02-04T07:16:27.348Z,9.10
2018-02-04T07:18:54.214Z,8.43
2018-02-04T07:21:21.046Z,9.90
2018-02-04T07:23:48.224Z,7.90
2018-02-04T07:26:15.372Z,8.13
2018-02-04T07:28:42.256Z,7.20
2018-02-04T07:31:09.089Z,8.27
2018-02-04T07:33:35.943Z,7.30
2018-02-04T07:36:02.774Z,7.45
2018-02-04T07:38:29.895Z,8.10
2018-02-04T07:40:56.764Z,7.72
2018-02-04T07:43:23.598Z,7.07
2018-02-04T07:45:50.406Z,6.60
2018-02-04T07:48:17.257Z,6.10
2018-02-04T07:50:44.416Z,5.60
2018-02-04T07:53:11.268Z,7.37
2018-02-04T07:55:38.112Z,7.20
2018-02-04T07:58:04.976Z,6.00
2018-02-04T08:00:31.861Z,7.28
2018-02-04T08:02:58.662Z,5.22
2018-02-04T08:05:25.524Z,6.30
2018-02-04T08:07:52.376Z,6.07
2018-02-04T08:10:19.220Z,5.97
2018-02-04T08:12:46.964Z,5.75
2018-02-04T08:15:13.786Z,6.70
2018-02-04T08:17:40.607Z,4.78
2018-02-04T08:20:07.431Z,5.15
2018-02-04T08:22:34.247Z,7.25
2018-02-04T08:25:01.097Z,4.53
2018-02-04T08:27:27.952Z,6.40
2018-02-04T08:29:54.811Z,5.10
2018-02-04T08:32:21.989Z,5.83
2018-02-04T08:34:48.840Z,5.70
2018-02-04T08:37:15.638Z,8.45
2018-02-04T08:39:42.495Z,5.30
2018-02-04T08:42:09.340Z,5.13
2018-02-04T08:44:36.224Z,5.90
2018-02-04T08:47:03.544Z,7.10
2018-02-04T08:49:30.431Z,5.93
2018-02-04T08:51:57.272Z,5.93
2018-02-04T08:54:24.383Z,4.80
2018-02-04T08:56:51.296Z,5.90
2018-02-04T08:59:18.151Z,6.60
2018-02-04T09:01:44.990Z,5.45
2018-02-04T09:04:11.839Z,5.57
2018-02-04T09:06:38.642Z,5.53
2018-02-04T09:09:05.511Z,5.00
2018-02-04T09:11:32.362Z,6.10
2018-02-04T09:13:59.175Z,22.33
2018-02-04T09:16:26.038Z,25.10
2018-02-04T09:18:52.894Z,22.70
2018-02-04T09:21:19.737Z,26.45
2018-02-04T09:23:46.601Z,23.15
2018-02-04T09:26:13.460Z,20.25
2018-02-04T09:28:40.312Z,14.80
2018-02-04T09:31:07.140Z,8.20
2018-02-04T09:33:33.967Z,7.85
2018-02-04T09:36:00.804Z,12.03
2018-02-04T09:38:27.615Z,15.70
2018-02-04T09:40:54.446Z,6.62
2018-02-04T09:43:21.271Z,14.23
2018-02-04T09:45:48.141Z,11.65
2018-02-04T09:48:15.347Z,20.60
2018-02-04T09:50:42.208Z,11.12
2018-02-04T09:53:09.046Z,9.55
2018-02-04T09:55:35.884Z,9.45
2018-02-04T09:58:02.701Z,7.35
2018-02-04T10:00:29.560Z,6.30
2018-02-04T10:02:56.712Z,7.78
2018-02-04T10:05:23.558Z,7.50
2018-02-04T10:07:50.407Z,6.20
2018-02-04T10:10:17.238Z,6.95
2018-02-04T10:12:44.047Z,6.57
2018-02-04T10:15:10.870Z,6.97
2018-02-04T10:17:37.741Z,8.27
2018-02-04T10:20:04.609Z,7.20
2018-02-04T10:22:31.414Z,6.43
2018-02-04T10:24:58.259Z,6.32
2018-02-04T10:27:25.071Z,7.00
2018-02-04T10:29:51.911Z,7.78
2018-02-04T10:32:20.521Z,7.40
2018-02-04T10:34:47.610Z,9.35
2018-02-04T10:37:14.648Z,7.80
2018-02-04T10:39:41.436Z,8.70
2018-02-04T10:42:08.247Z,10.15
2018-02-04T10:44:35.325Z,7.80
2018-02-04T10:47:02.329Z,9.30
2018-02-04T10:49:30.213Z,9.10
2018-02-04T10:51:57.365Z,9.30
2018-02-04T10:54:24.212Z,8.85
2018-02-04T10:56:51.072Z,8.80
2018-02-04T10:59:17.882Z,8.05
2018-02-04T11:01:44.721Z,7.40
2018-02-04T11:04:11.535Z,10.65
2018-02-04T11:06:38.350Z,10.20
2018-02-04T11:09:05.234Z,10.57
2018-02-04T11:11:32.108Z,20.40
2018-02-04T11:13:58.920Z,20.20
2018-02-04T11:16:25.772Z,13.40
2018-02-04T11:18:52.578Z,10.05
2018-02-04T11:21:19.434Z,10.45
2018-02-04T11:23:46.526Z,12.13
2018-02-04T11:26:13.679Z,10.13
2018-02-04T11:28:40.559Z,8.55
2018-02-04T11:31:19.139Z,10.10
2018-02-04T11:33:46.048Z,9.30
2018-02-04T11:36:13.131Z,8.52
2018-02-04T11:38:39.967Z,8.43
2018-02-04T11:41:06.847Z,7.53
2018-02-04T11:43:33.966Z,7.70
2018-02-04T11:46:00.878Z,8.10
2018-02-04T11:48:27.726Z,9.47
2018-02-04T11:50:54.808Z,7.62
2018-02-04T11:53:21.959Z,9.20
2018-02-04T11:55:48.758Z,9.65
2018-02-04T11:58:15.624Z,10.30
2018-02-04T12:00:42.438Z,9.07
2018-02-04T12:03:09.536Z,7.30
2018-02-04T12:05:36.358Z,9.23
2018-02-04T12:08:03.163Z,8.23
2018-02-04T12:10:30.032Z,10.60
2018-02-04T12:12:56.854Z,9.00
2018-02-04T12:15:23.669Z,9.68
2018-02-04T12:17:50.800Z,9.52
2018-02-04T12:20:17.643Z,10.45
2018-02-04T12:22:44.532Z,9.43
2018-02-04T12:25:11.630Z,8.93
2018-02-04T12:27:39.507Z,11.20
2018-02-04T12:30:06.337Z,9.18
2018-02-04T12:32:33.494Z,9.10
2018-02-04T12:35:00.620Z,9.80
2018-02-04T12:37:27.799Z,9.63
2018-02-04T12:39:54.952Z,10.13
2018-02-04T12:42:22.099Z,9.32
2018-02-04T12:44:48.932Z,9.70
2018-02-04T12:47:16.091Z,12.60
2018-02-04T12:49:42.911Z,9.98
2018-02-04T12:52:10.088Z,10.50
2018-02-04T12:54:37.234Z,11.25
2018-02-04T12:57:04.383Z,10.02
2018-02-04T12:59:31.543Z,9.90
2018-02-04T13:01:58.388Z,10.23
2018-02-04T13:04:25.235Z,10.98
2018-02-04T13:06:52.308Z,13.13
2018-02-04T13:09:19.124Z,10.80
2018-02-04T13:11:46.262Z,12.63
2018-02-04T13:14:13.132Z,11.80
2018-02-04T13:16:40.005Z,12.70
2018-02-04T13:19:06.852Z,11.38
2018-02-04T13:21:33.704Z,11.85
2018-02-04T13:24:00.783Z,13.20
2018-02-04T13:26:27.978Z,12.05
2018-02-04T13:28:54.828Z,10.80
2018-02-04T13:31:21.655Z,11.43
2018-02-04T13:33:48.770Z,12.15
2018-02-04T13:36:15.663Z,13.95
2018-02-04T13:38:42.471Z,11.57
2018-02-04T13:41:09.335Z,13.38
2018-02-04T13:43:36.188Z,13.85
2018-02-04T13:46:03.033Z,15.02
2018-02-04T13:48:30.139Z,15.03
2018-02-04T13:50:56.980Z,13.65
2018-02-04T13:53:23.820Z,15.70
2018-02-04T13:55:50.974Z,14.97
2018-02-04T13:58:17.791Z,17.55
2018-02-04T14:00:44.976Z,16.73
2018-02-04T14:03:12.124Z,18.60
2018-02-04T14:05:38.993Z,16.33
2018-02-04T14:08:05.860Z,18.65
2018-02-04T14:10:32.676Z,17.83
2018-02-04T14:12:59.529Z,17.35
2018-02-04T14:15:26.355Z,18.45
2018-02-04T14:17:53.312Z,17.35
2018-02-04T14:20:20.141Z,16.73
2018-02-04T14:22:46.961Z,17.10
2018-02-04T14:25:14.242Z,16.58
2018-02-04T14:27:41.128Z,23.65
2018-02-04T14:30:07.950Z,17.83
2018-02-04T14:32:35.040Z,16.17
2018-02-04T14:35:01.858Z,18.60
2018-02-04T14:37:28.697Z,19.90
2018-02-04T14:39:55.514Z,17.52
2018-02-04T14:42:22.339Z,18.75
2018-02-04T14:44:49.206Z,17.98
2018-02-04T14:47:16.081Z,19.30
2018-02-04T14:49:42.963Z,19.50
2018-02-04T14:52:09.802Z,19.05
2018-02-04T14:54:36.951Z,22.58
2018-02-04T14:57:04.107Z,23.85
2018-02-04T14:59:30.939Z,24.12
2018-02-04T15:01:57.794Z,24.05
2018-02-04T15:04:24.675Z,23.60
2018-02-04T15:06:51.787Z,27.50
2018-02-04T15:09:18.648Z,23.67
2018-02-04T15:11:45.483Z,25.45
2018-02-04T15:14:12.347Z,24.48
2018-02-04T15:16:39.248Z,22.48
2018-02-04T15:19:06.062Z,21.92
2018-02-04T15:21:32.886Z,26.08
2018-02-04T15:24:00.033Z,23.75
2018-02-04T15:26:26.910Z,22.65
2018-02-04T15:28:53.763Z,23.80
2018-02-04T15:31:20.587Z,23.90
2018-02-04T15:33:47.443Z,22.93
2018-02-04T15:36:14.290Z,23.02
2018-02-04T15:38:41.160Z,26.05
2018-02-04T15:41:08.204Z,21.27
2018-02-04T15:43:35.065Z,21.60
2018-02-04T15:46:01.895Z,24.40
2018-02-04T15:48:28.722Z,55.05
2018-02-04T15:50:55.611Z,25.50
2018-02-04T15:53:22.468Z,20.85
2018-02-04T15:55:49.302Z,23.85
2018-02-04T15:58:16.415Z,24.70
2018-02-04T16:00:43.558Z,21.87
2018-02-04T16:03:10.435Z,28.48
2018-02-04T16:05:37.262Z,22.98
2018-02-04T16:08:04.400Z,25.83
2018-02-04T16:10:31.548Z,23.77
2018-02-04T16:12:58.374Z,22.35
2018-02-04T16:15:26.364Z,21.95
2018-02-04T16:17:55.086Z,23.87
2018-02-04T16:20:24.494Z,23.52
2018-02-04T16:22:51.598Z,22.37
2018-02-04T16:25:18.464Z,26.45
2018-02-04T16:27:45.294Z,20.87
2018-02-04T16:30:12.107Z,21.90
2018-02-04T16:32:38.985Z,23.38
2018-02-04T16:35:05.810Z,23.45
2018-02-04T16:37:32.671Z,22.55
2018-02-04T16:39:59.541Z,24.15
2018-02-04T16:42:26.388Z,28.02
2018-02-04T16:44:53.605Z,23.85
2018-02-04T16:47:20.756Z,23.25
2018-02-04T16:49:47.600Z,22.95
2018-02-04T16:52:14.475Z,21.05
2018-02-04T16:54:41.336Z,24.05
2018-02-04T16:57:08.552Z,23.40
2018-02-04T16:59:35.400Z,23.60
2018-02-04T17:02:02.424Z,20.62
2018-02-04T17:04:29.619Z,25.33
2018-02-04T17:06:56.484Z,24.17
2018-02-04T17:09:23.723Z,22.27
2018-02-04T17:11:50.579Z,36.30
2018-02-04T17:14:17.424Z,25.58
2018-02-04T17:16:44.300Z,22.40
2018-02-04T17:19:11.119Z,22.87
2018-02-04T17:21:38.008Z,22.70
2018-02-04T17:24:04.876Z,25.07
2018-02-04T17:26:31.707Z,22.80
2018-02-04T17:28:58.546Z,20.50
2018-02-04T17:31:25.370Z,21.10
2018-02-04T17:33:52.427Z,19.67
2018-02-04T17:36:19.312Z,18.98
2018-02-04T17:38:46.508Z,22.67
2018-02-04T17:41:19.404Z,34.00
2018-02-04T17:43:46.283Z,23.30
2018-02-04T17:46:13.173Z,21.53
2018-02-04T17:48:40.018Z,17.87
2018-02-04T17:51:07.175Z,19.77
2018-02-04T17:53:34.048Z,20.63
2018-02-04T17:56:00.902Z,19.57
2018-02-04T17:58:28.115Z,19.90
2018-02-04T18:00:54.951Z,20.62
2018-02-04T18:03:22.027Z,21.50
2018-02-04T18:05:48.900Z,22.92
2018-02-04T18:08:15.776Z,18.77
2018-02-04T18:10:42.641Z,21.62
2018-02-04T18:13:09.547Z,20.55
2018-02-04T18:15:36.735Z,27.17
2018-02-04T18:18:03.555Z,19.73
2018-02-04T18:20:30.412Z,21.25
2018-02-04T18:22:57.563Z,22.80
2018-02-04T18:25:24.716Z,19.25
2018-02-04T18:27:51.588Z,20.02
2018-02-04T18:30:18.452Z,18.85
2018-02-04T18:32:45.312Z,22.48
2018-02-04T18:35:12.179Z,21.02
2018-02-04T18:37:39.343Z,21.23
2018-02-04T18:40:06.491Z,17.85
2018-02-04T18:42:33.643Z,17.20
2018-02-04T18:45:00.470Z,18.12
2018-02-04T18:47:27.635Z,18.17
2018-02-04T18:49:54.525Z,17.23
2018-02-04T18:52:21.334Z,17.52
2018-02-04T18:54:48.476Z,17.58
2018-02-04T18:57:15.332Z,16.02
2018-02-04T18:59:42.391Z,19.40
2018-02-04T19:02:09.231Z,17.20
2018-02-04T19:04:36.383Z,20.12
2018-02-04T19:07:03.511Z,17.95
2018-02-04T19:09:30.360Z,16.05
2018-02-04T19:11:57.228Z,16.42
2018-02-04T19:14:24.342Z,15.85
2018-02-04T19:16:51.164Z,27.13
2018-02-04T19:19:18.056Z,21.20
2018-02-04T19:21:44.912Z,29.50
2018-02-04T19:24:11.808Z,18.92
2018-02-04T19:26:38.627Z,15.40
2018-02-04T19:29:05.462Z,16.05
2018-02-04T19:31:32.315Z,16.83
2018-02-04T19:33:59.162Z,14.80
2018-02-04T19:36:26.060Z,14.90
2018-02-04T19:38:53.192Z,14.07
2018-02-04T19:41:20.015Z,15.18
2018-02-04T19:43:47.179Z,13.43
2018-02-04T19:46:14.034Z,14.45
2018-02-04T19:48:40.883Z,13.95
2018-02-04T19:51:08.120Z,13.27
2018-02-04T19:53:34.935Z,13.43
2018-02-04T19:56:01.820Z,16.70
2018-02-04T19:58:28.671Z,14.27
2018-02-04T20:00:55.519Z,14.98
2018-02-04T20:03:22.374Z,16.12
2018-02-04T20:05:49.205Z,18.37
2018-02-04T20:08:16.330Z,34.60
2018-02-04T20:10:43.476Z,18.45
2018-02-04T20:13:10.623Z,16.92
2018-02-04T20:15:37.471Z,12.77
2018-02-04T20:18:04.664Z,15.63
2018-02-04T20:20:31.532Z,13.50
2018-02-04T20:22:58.343Z,14.93
2018-02-04T20:25:25.212Z,14.27
2018-02-04T20:27:52.089Z,15.65
2018-02-04T20:30:19.242Z,17.93
2018-02-04T20:32:51.948Z,29.02
2018-02-04T20:35:19.098Z,25.70
2018-02-04T20:37:45.946Z,18.65
2018-02-04T20:40:13.068Z,21.27
2018-02-04T20:42:40.223Z,16.92
2018-02-04T20:45:07.080Z,17.55
2018-02-04T20:47:33.914Z,14.45
2018-02-04T20:50:00.779Z,13.30
2018-02-04T20:52:27.899Z,13.98
2018-02-04T20:54:54.726Z,12.65
2018-02-04T20:57:21.926Z,12.80
2018-02-04T20:59:48.966Z,11.83
2018-02-04T21:02:16.096Z,12.00
2018-02-04T21:04:43.243Z,12.63
2018-02-04T21:07:10.095Z,11.98
2018-02-04T21:09:36.959Z,12.90
2018-02-04T21:12:03.808Z,13.32
2018-02-04T21:14:30.924Z,12.55
2018-02-04T21:16:57.789Z,26.95
2018-02-04T21:19:24.922Z,11.77
2018-02-04T21:21:52.069Z,11.55
2018-02-04T21:24:19.216Z,8.90
2018-02-04T21:26:46.368Z,11.82
2018-02-04T21:29:13.244Z,11.85
2018-02-04T21:31:40.364Z,11.63
2018-02-04T21:34:07.208Z,13.32
2018-02-04T21:36:34.066Z,13.15
2018-02-04T21:39:00.903Z,11.73
2018-02-04T21:41:27.764Z,13.90
2018-02-04T21:43:54.645Z,11.20
2018-02-04T21:46:21.450Z,12.30
2018-02-04T21:48:48.566Z,11.38
2018-02-04T21:51:15.718Z,15.38
2018-02-04T21:53:42.584Z,15.52
2018-02-04T21:56:09.418Z,17.30
2018-02-04T21:58:36.245Z,18.90
2018-02-04T22:01:03.072Z,20.98
2018-02-04T22:03:30.243Z,16.98
2018-02-04T22:05:57.087Z,24.12
2018-02-04T22:08:23.931Z,21.10
2018-02-04T22:10:50.787Z,14.50
2018-02-04T22:13:17.918Z,11.70
2018-02-04T22:15:44.751Z,11.10
2018-02-04T22:18:11.811Z,11.43
2018-02-04T22:20:38.963Z,11.30
2018-02-04T22:23:06.110Z,9.73
2018-02-04T22:25:33.259Z,8.88
2018-02-04T22:28:00.124Z,7.97
2018-02-04T22:30:26.972Z,8.30
2018-02-04T22:32:54.100Z,8.35
2018-02-04T22:35:21.250Z,10.20
2018-02-04T22:37:48.125Z,9.10
2018-02-04T22:40:14.988Z,10.35
2018-02-04T22:42:42.187Z,9.50
2018-02-04T22:45:09.044Z,8.20
2018-02-04T22:47:36.183Z,9.50
2018-02-04T22:50:02.995Z,9.37
2018-02-04T22:52:29.843Z,8.73
2018-02-04T22:54:56.915Z,7.70
2018-02-04T22:57:23.742Z,8.03
2018-02-04T22:59:50.563Z,10.40
2018-02-04T23:02:17.756Z,9.47
2018-02-04T23:04:44.620Z,8.70
2018-02-04T23:07:11.746Z,9.75
2018-02-04T23:09:38.632Z,9.93
2018-02-04T23:12:05.739Z,9.35
2018-02-04T23:14:32.896Z,10.00
2018-02-04T23:16:59.738Z,8.00
2018-02-04T23:19:26.615Z,10.50
2018-02-04T23:21:53.837Z,9.02
2018-02-04T23:24:20.983Z,9.00
2018-02-04T23:26:47.840Z,10.18
2018-02-04T23:29:14.679Z,8.85
2018-02-04T23:31:41.482Z,9.48
2018-02-04T23:34:08.354Z,9.50
2018-02-04T23:36:35.502Z,9.10
2018-02-04T23:39:02.315Z,9.75
2018-02-04T23:41:29.502Z,9.50
2018-02-04T23:43:56.647Z,8.77
2018-02-04T23:46:23.803Z,10.98
2018-02-04T23:48:50.683Z,8.20
2018-02-04T23:51:17.486Z,8.50
2018-02-04T23:53:44.303Z,12.40
2018-02-04T23:56:11.480Z,9.32
2018-02-04T23:58:38.291Z,8.82
